sensor_id;sensor_type;location;lat;lon;timestamp;pressure;altitude;pressure_sealevel;temperature;humidity
9740;BME280;4909;42.680;26.324;2023-04-27T00:00:56;97882.44;;;11.63;95.65
9740;BME280;4909;42.680;26.324;2023-04-27T00:03:24;97904.88;;;11.73;94.91
9740;BME280;4909;42.680;26.324;2023-04-27T00:05:51;97923.72;;;11.85;92.23
9740;BME280;4909;42.680;26.324;2023-04-27T00:08:18;97898.22;;;11.66;92.01
9740;BME280;4909;42.680;26.324;2023-04-27T00:10:45;97889.97;;;11.71;91.51
9740;BME280;4909;42.680;26.324;2023-04-27T00:13:11;97887.91;;;11.76;92.11
9740;BME280;4909;42.680;26.324;2023-04-27T00:15:38;97927.25;;;11.69;93.79
9740;BME280;4909;42.680;26.324;2023-04-27T00:18:05;97924.97;;;11.63;93.19
9740;BME280;4909;42.680;26.324;2023-04-27T00:20:33;97918.75;;;11.49;93.12
9740;BME280;4909;42.680;26.324;2023-04-27T00:23:00;97930.25;;;11.49;92.49
9740;BME280;4909;42.680;26.324;2023-04-27T00:25:26;97939.59;;;11.56;94.04
9740;BME280;4909;42.680;26.324;2023-04-27T00:27:53;97937.91;;;11.40;89.05
9740;BME280;4909;42.680;26.324;2023-04-27T00:30:20;97933.72;;;10.90;93.31
9740;BME280;4909;42.680;26.324;2023-04-27T00:32:47;97930.69;;;11.12;92.06
9740;BME280;4909;42.680;26.324;2023-04-27T00:35:14;97939.25;;;11.17;94.46
9740;BME280;4909;42.680;26.324;2023-04-27T00:37:42;97937.28;;;11.20;88.81
9740;BME280;4909;42.680;26.324;2023-04-27T00:40:09;97950.34;;;11.39;89.75
9740;BME280;4909;42.680;26.324;2023-04-27T00:42:36;97898.78;;;10.98;88.09
9740;BME280;4909;42.680;26.324;2023-04-27T00:45:03;97934.81;;;11.17;85.71
9740;BME280;4909;42.680;26.324;2023-04-27T00:47:31;97920.09;;;10.80;87.71
9740;BME280;4909;42.680;26.324;2023-04-27T00:49:58;97935.25;;;10.94;88.42
9740;BME280;4909;42.680;26.324;2023-04-27T00:52:25;97905.91;;;10.81;84.73
9740;BME280;4909;42.680;26.324;2023-04-27T00:54:56;97933.56;;;10.93;86.46
9740;BME280;4909;42.680;26.324;2023-04-27T00:57:23;97925.47;;;11.10;85.77
9740;BME280;4909;42.680;26.324;2023-04-27T00:59:49;97958.19;;;11.11;83.33
9740;BME280;4909;42.680;26.324;2023-04-27T01:02:16;97946.13;;;10.89;84.52
9740;BME280;4909;42.680;26.324;2023-04-27T01:04:43;97917.13;;;10.86;83.62
9740;BME280;4909;42.680;26.324;2023-04-27T01:07:10;97923.09;;;10.90;84.21
9740;BME280;4909;42.680;26.324;2023-04-27T01:09:36;97946.03;;;11.07;80.87
9740;BME280;4909;42.680;26.324;2023-04-27T01:12:05;97959.56;;;11.18;80.32
9740;BME280;4909;42.680;26.324;2023-04-27T01:14:32;97954.13;;;11.35;81.44
9740;BME280;4909;42.680;26.324;2023-04-27T01:16:59;97963.84;;;11.20;76.55
9740;BME280;4909;42.680;26.324;2023-04-27T01:19:26;97989.81;;;11.15;77.21
9740;BME280;4909;42.680;26.324;2023-04-27T01:21:53;97957.03;;;11.30;76.04
9740;BME280;4909;42.680;26.324;2023-04-27T01:24:21;97992.97;;;11.22;75.53
9740;BME280;4909;42.680;26.324;2023-04-27T01:26:48;97986.06;;;11.33;78.15
9740;BME280;4909;42.680;26.324;2023-04-27T01:29:16;97983.53;;;11.62;77.13
9740;BME280;4909;42.680;26.324;2023-04-27T01:31:43;97998.41;;;11.34;75.26
9740;BME280;4909;42.680;26.324;2023-04-27T01:34:10;98017.69;;;11.38;74.54
9740;BME280;4909;42.680;26.324;2023-04-27T01:36:37;97993.69;;;11.55;77.82
9740;BME280;4909;42.680;26.324;2023-04-27T01:39:04;98025.06;;;11.49;76.18
9740;BME280;4909;42.680;26.324;2023-04-27T01:41:35;98019.94;;;11.46;78.13
9740;BME280;4909;42.680;26.324;2023-04-27T01:44:01;97996.59;;;11.51;79.41
9740;BME280;4909;42.680;26.324;2023-04-27T01:46:28;98019.91;;;11.61;81.42
9740;BME280;4909;42.680;26.324;2023-04-27T01:48:55;98036.19;;;11.55;80.34
9740;BME280;4909;42.680;26.324;2023-04-27T01:51:22;98024.44;;;11.59;80.38
9740;BME280;4909;42.680;26.324;2023-04-27T01:53:48;98023.13;;;11.37;80.76
9740;BME280;4909;42.680;26.324;2023-04-27T01:56:15;98041.53;;;11.24;82.38
9740;BME280;4909;42.680;26.324;2023-04-27T01:58:43;98036.22;;;11.24;82.58
9740;BME280;4909;42.680;26.324;2023-04-27T02:01:10;98023.56;;;11.59;85.11
9740;BME280;4909;42.680;26.324;2023-04-27T02:03:37;98033.84;;;11.65;81.99
9740;BME280;4909;42.680;26.324;2023-04-27T02:06:04;98029.44;;;11.34;82.60
9740;BME280;4909;42.680;26.324;2023-04-27T02:08:30;98032.63;;;11.41;83.55
9740;BME280;4909;42.680;26.324;2023-04-27T02:10:57;98028.44;;;11.37;82.15
9740;BME280;4909;42.680;26.324;2023-04-27T02:13:24;98040.13;;;11.80;85.17
9740;BME280;4909;42.680;26.324;2023-04-27T02:15:52;98041.25;;;11.75;81.53
9740;BME280;4909;42.680;26.324;2023-04-27T02:18:20;97999.59;;;11.45;80.95
9740;BME280;4909;42.680;26.324;2023-04-27T02:20:47;98021.78;;;11.59;82.17
9740;BME280;4909;42.680;26.324;2023-04-27T02:23:14;98051.25;;;11.70;78.41
9740;BME280;4909;42.680;26.324;2023-04-27T02:25:41;98077.22;;;12.11;79.96
9740;BME280;4909;42.680;26.324;2023-04-27T02:28:11;98059.00;;;12.05;80.94
9740;BME280;4909;42.680;26.324;2023-04-27T02:30:37;98072.16;;;11.92;79.43
9740;BME280;4909;42.680;26.324;2023-04-27T02:33:06;98084.84;;;11.87;78.68
9740;BME280;4909;42.680;26.324;2023-04-27T02:35:32;98081.28;;;11.72;78.37
9740;BME280;4909;42.680;26.324;2023-04-27T02:37:59;98091.47;;;11.64;82.73
9740;BME280;4909;42.680;26.324;2023-04-27T02:40:26;98087.47;;;11.73;81.14
9740;BME280;4909;42.680;26.324;2023-04-27T02:42:53;98083.09;;;11.56;77.99
9740;BME280;4909;42.680;26.324;2023-04-27T02:45:19;98086.94;;;11.66;78.93
9740;BME280;4909;42.680;26.324;2023-04-27T02:47:46;98105.22;;;11.72;79.75
9740;BME280;4909;42.680;26.324;2023-04-27T02:50:14;98102.19;;;11.63;77.28
9740;BME280;4909;42.680;26.324;2023-04-27T02:52:41;98093.63;;;11.73;79.75
9740;BME280;4909;42.680;26.324;2023-04-27T02:55:08;98115.00;;;11.56;79.71
9740;BME280;4909;42.680;26.324;2023-04-27T02:57:35;98119.97;;;11.31;81.16
9740;BME280;4909;42.680;26.324;2023-04-27T03:00:03;98122.59;;;11.62;82.71
9740;BME280;4909;42.680;26.324;2023-04-27T03:02:33;98133.75;;;11.69;76.68
9740;BME280;4909;42.680;26.324;2023-04-27T03:05:00;98142.50;;;11.55;77.17
9740;BME280;4909;42.680;26.324;2023-04-27T03:07:30;98128.34;;;11.39;79.98
9740;BME280;4909;42.680;26.324;2023-04-27T03:09:57;98141.13;;;11.32;79.72
9740;BME280;4909;42.680;26.324;2023-04-27T03:12:23;98153.28;;;11.21;77.90
9740;BME280;4909;42.680;26.324;2023-04-27T03:14:50;98161.88;;;11.42;80.78
9740;BME280;4909;42.680;26.324;2023-04-27T03:17:17;98153.94;;;11.09;78.70
9740;BME280;4909;42.680;26.324;2023-04-27T03:19:46;98174.31;;;11.41;78.39
9740;BME280;4909;42.680;26.324;2023-04-27T03:22:12;98173.38;;;11.42;79.94
9740;BME280;4909;42.680;26.324;2023-04-27T03:24:40;98160.56;;;11.33;76.29
9740;BME280;4909;42.680;26.324;2023-04-27T03:27:07;98188.81;;;11.83;76.46
9740;BME280;4909;42.680;26.324;2023-04-27T03:29:34;98189.06;;;11.78;79.22
9740;BME280;4909;42.680;26.324;2023-04-27T03:32:01;98206.38;;;12.46;78.34
9740;BME280;4909;42.680;26.324;2023-04-27T03:34:29;98198.34;;;12.32;79.44
9740;BME280;4909;42.680;26.324;2023-04-27T03:36:56;98199.13;;;12.78;76.90
9740;BME280;4909;42.680;26.324;2023-04-27T03:39:23;98213.19;;;12.36;70.24
9740;BME280;4909;42.680;26.324;2023-04-27T03:41:51;98218.91;;;13.18;77.75
9740;BME280;4909;42.680;26.324;2023-04-27T03:44:18;98210.50;;;13.10;76.62
9740;BME280;4909;42.680;26.324;2023-04-27T03:46:45;98221.78;;;13.43;76.08
9740;BME280;4909;42.680;26.324;2023-04-27T03:49:12;98236.28;;;12.95;75.03
9740;BME280;4909;42.680;26.324;2023-04-27T03:51:39;98232.84;;;13.07;74.66
9740;BME280;4909;42.680;26.324;2023-04-27T03:54:06;98226.44;;;13.12;73.72
9740;BME280;4909;42.680;26.324;2023-04-27T03:56:33;98226.47;;;13.26;73.88
9740;BME280;4909;42.680;26.324;2023-04-27T03:59:02;98233.31;;;13.30;71.85
9740;BME280;4909;42.680;26.324;2023-04-27T04:04:14;98246.66;;;12.40;69.71
9740;BME280;4909;42.680;26.324;2023-04-27T04:06:41;98248.44;;;13.29;76.59
9740;BME280;4909;42.680;26.324;2023-04-27T04:09:08;98265.56;;;13.82;71.12
9740;BME280;4909;42.680;26.324;2023-04-27T04:11:35;98269.66;;;13.73;71.11
9740;BME280;4909;42.680;26.324;2023-04-27T04:14:03;98267.00;;;13.73;70.00
9740;BME280;4909;42.680;26.324;2023-04-27T04:16:32;98269.56;;;13.46;72.82
9740;BME280;4909;42.680;26.324;2023-04-27T04:18:58;98283.72;;;13.19;73.26
9740;BME280;4909;42.680;26.324;2023-04-27T04:21:25;98286.03;;;13.67;71.46
9740;BME280;4909;42.680;26.324;2023-04-27T04:23:52;98281.94;;;14.45;71.58
9740;BME280;4909;42.680;26.324;2023-04-27T04:26:19;98291.28;;;13.83;67.56
9740;BME280;4909;42.680;26.324;2023-04-27T04:28:47;98273.78;;;14.61;69.85
9740;BME280;4909;42.680;26.324;2023-04-27T04:31:16;98284.06;;;15.32;69.05
9740;BME280;4909;42.680;26.324;2023-04-27T04:33:42;98287.81;;;15.29;68.21
9740;BME280;4909;42.680;26.324;2023-04-27T04:36:09;98264.78;;;15.14;68.46
9740;BME280;4909;42.680;26.324;2023-04-27T04:38:36;98288.13;;;15.50;67.53
9740;BME280;4909;42.680;26.324;2023-04-27T04:41:03;98289.38;;;15.44;67.46
9740;BME280;4909;42.680;26.324;2023-04-27T04:43:30;98302.31;;;15.12;62.13
9740;BME280;4909;42.680;26.324;2023-04-27T04:45:57;98283.75;;;14.30;66.14
9740;BME280;4909;42.680;26.324;2023-04-27T04:48:25;98285.13;;;14.38;73.60
9740;BME280;4909;42.680;26.324;2023-04-27T04:50:53;98293.44;;;14.72;70.87
9740;BME280;4909;42.680;26.324;2023-04-27T04:53:20;98303.53;;;14.00;65.29
9740;BME280;4909;42.680;26.324;2023-04-27T04:55:46;98287.97;;;14.20;74.15
9740;BME280;4909;42.680;26.324;2023-04-27T04:58:13;98314.44;;;14.23;71.86
9740;BME280;4909;42.680;26.324;2023-04-27T05:00:40;98313.41;;;14.40;73.10
9740;BME280;4909;42.680;26.324;2023-04-27T05:03:07;98312.91;;;14.48;71.66
9740;BME280;4909;42.680;26.324;2023-04-27T05:05:35;98322.63;;;13.93;69.74
9740;BME280;4909;42.680;26.324;2023-04-27T05:08:02;98331.63;;;13.20;67.14
9740;BME280;4909;42.680;26.324;2023-04-27T05:10:29;98319.59;;;13.13;71.57
9740;BME280;4909;42.680;26.324;2023-04-27T05:12:56;98315.44;;;13.37;79.12
9740;BME280;4909;42.680;26.324;2023-04-27T05:15:22;98323.88;;;13.74;73.07
9740;BME280;4909;42.680;26.324;2023-04-27T05:17:49;98252.94;;;12.99;75.60
9740;BME280;4909;42.680;26.324;2023-04-27T05:20:16;98311.25;;;14.04;78.68
9740;BME280;4909;42.680;26.324;2023-04-27T05:22:44;98303.81;;;14.38;71.75
9740;BME280;4909;42.680;26.324;2023-04-27T05:25:11;98298.13;;;14.56;75.42
9740;BME280;4909;42.680;26.324;2023-04-27T05:27:38;98295.28;;;14.31;76.55
9740;BME280;4909;42.680;26.324;2023-04-27T05:30:06;98312.97;;;14.05;73.15
9740;BME280;4909;42.680;26.324;2023-04-27T05:32:33;98315.63;;;14.05;71.38
9740;BME280;4909;42.680;26.324;2023-04-27T05:35:01;98308.31;;;13.94;75.95
9740;BME280;4909;42.680;26.324;2023-04-27T05:37:29;98312.69;;;13.96;71.83
9740;BME280;4909;42.680;26.324;2023-04-27T05:39:57;98325.56;;;13.61;69.79
9740;BME280;4909;42.680;26.324;2023-04-27T05:42:24;98315.94;;;13.72;76.67
9740;BME280;4909;42.680;26.324;2023-04-27T05:44:51;98324.81;;;13.59;71.03
9740;BME280;4909;42.680;26.324;2023-04-27T05:47:17;98309.19;;;13.38;72.35
9740;BME280;4909;42.680;26.324;2023-04-27T05:49:49;98317.88;;;13.12;70.03
9740;BME280;4909;42.680;26.324;2023-04-27T05:52:15;98317.25;;;13.07;76.77
9740;BME280;4909;42.680;26.324;2023-04-27T05:54:45;98290.06;;;13.02;72.24
9740;BME280;4909;42.680;26.324;2023-04-27T05:57:14;98322.59;;;13.07;73.21
9740;BME280;4909;42.680;26.324;2023-04-27T05:59:41;98281.44;;;12.83;73.56
9740;BME280;4909;42.680;26.324;2023-04-27T06:02:08;98301.19;;;13.08;79.06
9740;BME280;4909;42.680;26.324;2023-04-27T06:04:35;98322.19;;;13.29;73.21
9740;BME280;4909;42.680;26.324;2023-04-27T06:07:07;98318.41;;;13.33;75.54
9740;BME280;4909;42.680;26.324;2023-04-27T06:09:34;98314.75;;;13.20;70.16
9740;BME280;4909;42.680;26.324;2023-04-27T06:12:01;98306.56;;;13.23;74.13
9740;BME280;4909;42.680;26.324;2023-04-27T06:14:30;98326.28;;;13.20;70.00
9740;BME280;4909;42.680;26.324;2023-04-27T06:16:57;98324.63;;;13.62;73.24
9740;BME280;4909;42.680;26.324;2023-04-27T06:19:23;98327.13;;;13.65;71.32
9740;BME280;4909;42.680;26.324;2023-04-27T06:21:52;98329.06;;;13.47;72.92
9740;BME280;4909;42.680;26.324;2023-04-27T06:24:19;98325.53;;;13.32;77.00
9740;BME280;4909;42.680;26.324;2023-04-27T06:26:46;98341.16;;;13.38;70.89
9740;BME280;4909;42.680;26.324;2023-04-27T06:29:12;98344.31;;;13.31;65.42
9740;BME280;4909;42.680;26.324;2023-04-27T06:31:41;98334.91;;;13.54;72.04
9740;BME280;4909;42.680;26.324;2023-04-27T06:34:07;98314.16;;;13.73;75.44
9740;BME280;4909;42.680;26.324;2023-04-27T06:36:34;98332.44;;;13.65;69.78
9740;BME280;4909;42.680;26.324;2023-04-27T06:39:01;98337.09;;;13.61;70.72
9740;BME280;4909;42.680;26.324;2023-04-27T06:41:28;98332.53;;;13.77;74.66
9740;BME280;4909;42.680;26.324;2023-04-27T06:43:54;98336.38;;;14.57;73.97
9740;BME280;4909;42.680;26.324;2023-04-27T06:46:21;98338.72;;;15.01;72.38
9740;BME280;4909;42.680;26.324;2023-04-27T06:48:49;98349.72;;;14.96;66.43
9740;BME280;4909;42.680;26.324;2023-04-27T06:51:17;98349.19;;;14.64;63.39
9740;BME280;4909;42.680;26.324;2023-04-27T06:53:43;98349.47;;;14.05;64.60
9740;BME280;4909;42.680;26.324;2023-04-27T06:56:10;98356.63;;;14.04;70.89
9740;BME280;4909;42.680;26.324;2023-04-27T06:58:37;98355.22;;;13.84;68.52
9740;BME280;4909;42.680;26.324;2023-04-27T07:01:04;98351.81;;;13.38;62.79
9740;BME280;4909;42.680;26.324;2023-04-27T07:03:33;98348.81;;;14.01;71.14
9740;BME280;4909;42.680;26.324;2023-04-27T07:06:01;98348.88;;;14.14;68.23
9740;BME280;4909;42.680;26.324;2023-04-27T07:08:28;98366.47;;;14.04;63.30
9740;BME280;4909;42.680;26.324;2023-04-27T07:10:55;98357.28;;;14.22;64.88
9740;BME280;4909;42.680;26.324;2023-04-27T07:13:22;98358.22;;;14.21;64.09
9740;BME280;4909;42.680;26.324;2023-04-27T07:15:53;98368.44;;;14.14;62.16
9740;BME280;4909;42.680;26.324;2023-04-27T07:18:21;98381.97;;;13.83;62.47
9740;BME280;4909;42.680;26.324;2023-04-27T07:20:48;98368.06;;;13.78;64.97
9740;BME280;4909;42.680;26.324;2023-04-27T07:23:16;98368.63;;;13.97;63.91
9740;BME280;4909;42.680;26.324;2023-04-27T07:25:43;98347.19;;;13.70;68.07
9740;BME280;4909;42.680;26.324;2023-04-27T07:28:10;98383.00;;;13.94;64.20
9740;BME280;4909;42.680;26.324;2023-04-27T07:30:37;98382.63;;;14.29;66.63
9740;BME280;4909;42.680;26.324;2023-04-27T07:33:04;98390.72;;;13.99;60.93
9740;BME280;4909;42.680;26.324;2023-04-27T07:35:31;98360.34;;;13.87;65.16
9740;BME280;4909;42.680;26.324;2023-04-27T07:37:58;98385.69;;;13.80;61.71
9740;BME280;4909;42.680;26.324;2023-04-27T07:40:28;98386.75;;;13.78;66.06
9740;BME280;4909;42.680;26.324;2023-04-27T07:42:57;98392.44;;;14.28;66.95
9740;BME280;4909;42.680;26.324;2023-04-27T07:45:24;98405.41;;;14.34;63.97
9740;BME280;4909;42.680;26.324;2023-04-27T07:47:56;98394.13;;;14.58;62.52
9740;BME280;4909;42.680;26.324;2023-04-27T07:50:24;98398.91;;;14.53;64.23
9740;BME280;4909;42.680;26.324;2023-04-27T07:52:51;98392.84;;;14.22;62.33
9740;BME280;4909;42.680;26.324;2023-04-27T07:55:18;98410.38;;;14.55;63.07
9740;BME280;4909;42.680;26.324;2023-04-27T07:57:47;98414.09;;;14.66;63.19
9740;BME280;4909;42.680;26.324;2023-04-27T08:00:14;98399.03;;;13.94;59.88
9740;BME280;4909;42.680;26.324;2023-04-27T08:02:41;98412.94;;;14.14;63.76
9740;BME280;4909;42.680;26.324;2023-04-27T08:05:08;98403.38;;;13.67;62.55
9740;BME280;4909;42.680;26.324;2023-04-27T08:07:35;98403.47;;;13.66;65.74
9740;BME280;4909;42.680;26.324;2023-04-27T08:10:03;98409.97;;;13.90;63.89
9740;BME280;4909;42.680;26.324;2023-04-27T08:12:31;98418.31;;;13.56;61.08
9740;BME280;4909;42.680;26.324;2023-04-27T08:14:59;98417.06;;;13.47;61.40
9740;BME280;4909;42.680;26.324;2023-04-27T08:17:26;98411.25;;;13.40;61.79
9740;BME280;4909;42.680;26.324;2023-04-27T08:19:53;98409.44;;;12.95;66.62
9740;BME280;4909;42.680;26.324;2023-04-27T08:22:19;98413.56;;;13.17;65.98
9740;BME280;4909;42.680;26.324;2023-04-27T08:24:46;98416.50;;;13.56;67.03
9740;BME280;4909;42.680;26.324;2023-04-27T08:27:13;98422.88;;;13.98;61.31
9740;BME280;4909;42.680;26.324;2023-04-27T08:29:44;98427.63;;;14.07;62.51
9740;BME280;4909;42.680;26.324;2023-04-27T08:32:14;98423.72;;;14.55;61.25
9740;BME280;4909;42.680;26.324;2023-04-27T08:34:41;98430.31;;;14.49;58.63
9740;BME280;4909;42.680;26.324;2023-04-27T08:37:09;98433.25;;;14.30;63.04
9740;BME280;4909;42.680;26.324;2023-04-27T08:39:36;98431.25;;;14.48;59.80
9740;BME280;4909;42.680;26.324;2023-04-27T08:42:09;98429.66;;;14.87;57.20
9740;BME280;4909;42.680;26.324;2023-04-27T08:44:37;98423.75;;;14.82;58.09
9740;BME280;4909;42.680;26.324;2023-04-27T08:47:05;98434.94;;;14.74;60.80
9740;BME280;4909;42.680;26.324;2023-04-27T08:49:34;98430.56;;;15.27;62.39
9740;BME280;4909;42.680;26.324;2023-04-27T08:52:02;98427.28;;;15.88;63.67
9740;BME280;4909;42.680;26.324;2023-04-27T08:54:29;98418.09;;;16.04;58.92
9740;BME280;4909;42.680;26.324;2023-04-27T08:56:56;98423.00;;;16.36;58.56
9740;BME280;4909;42.680;26.324;2023-04-27T08:59:23;98429.22;;;16.24;57.18
9740;BME280;4909;42.680;26.324;2023-04-27T09:01:50;98421.75;;;16.16;59.22
9740;BME280;4909;42.680;26.324;2023-04-27T09:04:17;98429.66;;;16.30;58.44
9740;BME280;4909;42.680;26.324;2023-04-27T09:06:45;98419.31;;;16.75;60.74
9740;BME280;4909;42.680;26.324;2023-04-27T09:09:21;98402.63;;;16.33;54.76
9740;BME280;4909;42.680;26.324;2023-04-27T09:11:48;98408.66;;;15.74;57.04
9740;BME280;4909;42.680;26.324;2023-04-27T09:14:16;98412.31;;;15.85;58.81
9740;BME280;4909;42.680;26.324;2023-04-27T09:16:44;98423.22;;;16.20;61.07
9740;BME280;4909;42.680;26.324;2023-04-27T09:19:11;98419.66;;;16.45;59.75
9740;BME280;4909;42.680;26.324;2023-04-27T09:21:38;98409.91;;;16.44;58.93
9740;BME280;4909;42.680;26.324;2023-04-27T09:24:12;98419.63;;;16.58;58.84
9740;BME280;4909;42.680;26.324;2023-04-27T09:26:39;98416.69;;;16.86;59.49
9740;BME280;4909;42.680;26.324;2023-04-27T09:29:07;98407.41;;;17.03;59.09
9740;BME280;4909;42.680;26.324;2023-04-27T09:31:35;98413.84;;;17.24;57.88
9740;BME280;4909;42.680;26.324;2023-04-27T09:34:02;98406.97;;;17.09;57.39
9740;BME280;4909;42.680;26.324;2023-04-27T09:36:30;98409.03;;;16.69;58.16
9740;BME280;4909;42.680;26.324;2023-04-27T09:39:01;98400.91;;;16.45;59.50
9740;BME280;4909;42.680;26.324;2023-04-27T09:41:30;98384.97;;;16.31;58.84
9740;BME280;4909;42.680;26.324;2023-04-27T09:43:57;98396.22;;;16.36;57.34
9740;BME280;4909;42.680;26.324;2023-04-27T09:46:27;98374.88;;;16.60;59.78
9740;BME280;4909;42.680;26.324;2023-04-27T09:48:55;98369.50;;;16.47;56.15
9740;BME280;4909;42.680;26.324;2023-04-27T09:51:22;98386.66;;;16.93;60.09
9740;BME280;4909;42.680;26.324;2023-04-27T09:53:51;98389.97;;;16.48;55.58
9740;BME280;4909;42.680;26.324;2023-04-27T09:56:26;98369.63;;;16.58;61.56
9740;BME280;4909;42.680;26.324;2023-04-27T09:59:16;98361.47;;;16.47;58.39
9740;BME280;4909;42.680;26.324;2023-04-27T10:01:49;98371.03;;;16.38;59.68
9740;BME280;4909;42.680;26.324;2023-04-27T10:04:31;98373.09;;;16.71;60.63
9740;BME280;4909;42.680;26.324;2023-04-27T10:07:03;98357.66;;;16.75;55.83
9740;BME280;4909;42.680;26.324;2023-04-27T10:09:35;98363.22;;;16.35;56.23
9740;BME280;4909;42.680;26.324;2023-04-27T10:12:16;98368.81;;;16.56;58.75
9740;BME280;4909;42.680;26.324;2023-04-27T10:14:52;98359.16;;;16.30;57.85
9740;BME280;4909;42.680;26.324;2023-04-27T10:17:23;98381.97;;;16.84;58.09
9740;BME280;4909;42.680;26.324;2023-04-27T10:19:56;98383.28;;;16.79;56.18
9740;BME280;4909;42.680;26.324;2023-04-27T10:22:23;98391.34;;;16.90;55.82
9740;BME280;4909;42.680;26.324;2023-04-27T10:24:50;98390.50;;;16.89;56.20
9740;BME280;4909;42.680;26.324;2023-04-27T10:27:18;98386.84;;;16.67;57.21
9740;BME280;4909;42.680;26.324;2023-04-27T10:29:47;98391.34;;;16.53;58.00
9740;BME280;4909;42.680;26.324;2023-04-27T10:32:20;98391.97;;;16.57;56.33
9740;BME280;4909;42.680;26.324;2023-04-27T10:34:48;98369.88;;;16.30;56.08
9740;BME280;4909;42.680;26.324;2023-04-27T10:37:15;98390.25;;;16.20;57.46
9740;BME280;4909;42.680;26.324;2023-04-27T10:39:45;98384.34;;;16.15;60.43
9740;BME280;4909;42.680;26.324;2023-04-27T10:42:11;98386.84;;;15.92;62.28
9740;BME280;4909;42.680;26.324;2023-04-27T10:44:38;98384.56;;;15.21;60.11
9740;BME280;4909;42.680;26.324;2023-04-27T10:47:13;98397.78;;;15.50;61.78
9740;BME280;4909;42.680;26.324;2023-04-27T10:49:42;98407.06;;;15.71;60.21
9740;BME280;4909;42.680;26.324;2023-04-27T10:52:09;98393.78;;;15.70;59.32
9740;BME280;4909;42.680;26.324;2023-04-27T10:54:35;98392.19;;;15.40;61.86
9740;BME280;4909;42.680;26.324;2023-04-27T10:57:05;98416.50;;;15.10;61.85
9740;BME280;4909;42.680;26.324;2023-04-27T10:59:32;98424.16;;;15.02;61.95
9740;BME280;4909;42.680;26.324;2023-04-27T11:02:00;98408.13;;;15.02;62.97
9740;BME280;4909;42.680;26.324;2023-04-27T11:04:39;98418.25;;;15.51;61.92
9740;BME280;4909;42.680;26.324;2023-04-27T11:07:08;98423.09;;;15.71;60.36
9740;BME280;4909;42.680;26.324;2023-04-27T11:09:35;98409.50;;;15.61;60.80
9740;BME280;4909;42.680;26.324;2023-04-27T11:12:05;98413.22;;;15.59;61.34
9740;BME280;4909;42.680;26.324;2023-04-27T11:14:33;98411.69;;;15.42;63.29
9740;BME280;4909;42.680;26.324;2023-04-27T11:17:01;98415.19;;;15.03;61.49
9740;BME280;4909;42.680;26.324;2023-04-27T11:19:28;98407.94;;;14.78;62.13
9740;BME280;4909;42.680;26.324;2023-04-27T11:22:02;98395.81;;;14.73;65.07
9740;BME280;4909;42.680;26.324;2023-04-27T11:24:30;98417.31;;;14.98;63.05
9740;BME280;4909;42.680;26.324;2023-04-27T11:26:57;98380.56;;;14.75;63.56
9740;BME280;4909;42.680;26.324;2023-04-27T11:29:24;98413.13;;;14.94;63.15
9740;BME280;4909;42.680;26.324;2023-04-27T11:31:51;98397.66;;;14.99;64.06
9740;BME280;4909;42.680;26.324;2023-04-27T11:34:19;98417.78;;;15.05;62.97
9740;BME280;4909;42.680;26.324;2023-04-27T11:36:56;98401.88;;;14.89;61.92
9740;BME280;4909;42.680;26.324;2023-04-27T11:39:26;98407.75;;;15.21;63.87
9740;BME280;4909;42.680;26.324;2023-04-27T11:41:54;98423.47;;;15.13;62.17
9740;BME280;4909;42.680;26.324;2023-04-27T11:44:24;98415.72;;;14.96;65.08
9740;BME280;4909;42.680;26.324;2023-04-27T11:46:51;98428.72;;;14.47;64.22
9740;BME280;4909;42.680;26.324;2023-04-27T11:49:18;98427.63;;;14.49;64.19
9740;BME280;4909;42.680;26.324;2023-04-27T11:51:45;98415.63;;;14.28;63.62
9740;BME280;4909;42.680;26.324;2023-04-27T11:54:13;98426.25;;;13.71;65.48
9740;BME280;4909;42.680;26.324;2023-04-27T11:56:41;98385.94;;;13.62;67.59
9740;BME280;4909;42.680;26.324;2023-04-27T11:59:19;98416.19;;;14.05;65.48
9740;BME280;4909;42.680;26.324;2023-04-27T12:01:47;98398.75;;;14.13;65.67
9740;BME280;4909;42.680;26.324;2023-04-27T12:04:14;98410.75;;;13.92;65.48
9740;BME280;4909;42.680;26.324;2023-04-27T12:06:41;98426.56;;;13.95;66.36
9740;BME280;4909;42.680;26.324;2023-04-27T12:09:08;98417.16;;;14.04;66.19
9740;BME280;4909;42.680;26.324;2023-04-27T12:11:34;98418.19;;;14.01;66.09
9740;BME280;4909;42.680;26.324;2023-04-27T12:14:01;98417.22;;;14.30;65.28
9740;BME280;4909;42.680;26.324;2023-04-27T12:16:30;98387.28;;;14.54;64.67
9740;BME280;4909;42.680;26.324;2023-04-27T12:18:56;98386.06;;;14.31;63.79
9740;BME280;4909;42.680;26.324;2023-04-27T12:21:23;98421.91;;;14.27;64.99
9740;BME280;4909;42.680;26.324;2023-04-27T12:23:50;98416.75;;;14.24;65.29
9740;BME280;4909;42.680;26.324;2023-04-27T12:26:17;98410.28;;;14.28;65.72
9740;BME280;4909;42.680;26.324;2023-04-27T12:28:44;98406.94;;;14.24;64.01
9740;BME280;4909;42.680;26.324;2023-04-27T12:31:13;98367.78;;;13.82;67.49
9740;BME280;4909;42.680;26.324;2023-04-27T12:33:42;98394.66;;;14.22;64.74
9740;BME280;4909;42.680;26.324;2023-04-27T12:36:08;98396.53;;;14.34;64.40
9740;BME280;4909;42.680;26.324;2023-04-27T12:38:35;98403.97;;;14.29;64.81
9740;BME280;4909;42.680;26.324;2023-04-27T12:41:02;98399.50;;;14.29;65.52
9740;BME280;4909;42.680;26.324;2023-04-27T12:43:29;98403.81;;;14.46;64.20
9740;BME280;4909;42.680;26.324;2023-04-27T12:45:56;98396.66;;;14.18;64.98
9740;BME280;4909;42.680;26.324;2023-04-27T12:48:22;98398.34;;;14.48;67.22
9740;BME280;4909;42.680;26.324;2023-04-27T12:50:52;98391.34;;;14.73;66.59
9740;BME280;4909;42.680;26.324;2023-04-27T12:53:18;98392.25;;;15.13;64.49
9740;BME280;4909;42.680;26.324;2023-04-27T12:55:46;98409.81;;;15.30;63.51
9740;BME280;4909;42.680;26.324;2023-04-27T12:58:12;98397.84;;;15.36;60.18
9740;BME280;4909;42.680;26.324;2023-04-27T13:00:39;98386.13;;;15.11;62.80
9740;BME280;4909;42.680;26.324;2023-04-27T13:03:06;98402.22;;;15.89;63.00
9740;BME280;4909;42.680;26.324;2023-04-27T13:05:33;98406.81;;;15.61;60.33
9740;BME280;4909;42.680;26.324;2023-04-27T13:08:01;98397.53;;;15.28;62.55
9740;BME280;4909;42.680;26.324;2023-04-27T13:10:29;98392.97;;;15.03;62.33
9740;BME280;4909;42.680;26.324;2023-04-27T13:12:56;98404.34;;;15.19;62.83
9740;BME280;4909;42.680;26.324;2023-04-27T13:15:23;98392.56;;;15.48;62.79